»·PEaware :: N75232 KSAN-KSNA

N75232 :: KSAN-KSNA

FLIGHT INFORMATION

Flight Status: Arrived
Operator: Privately registered:
United States
More flights under this callsign
Pilot: Daniel B. (28719)
Aircraft: CESSNA 172 SKYHAWK
(C172)
More flights by this aircraft type
Origin: KSAN San Diego Intl-Lindbergh
United States
Destination: KSNA John Wayne-Orange Co
United States
More flights between these airports :: More routes between these airports
Route: +
File this flight plan on PilotEdge
Remarks: cat11
Altitude:
(Current/Filed)
8,500ft
Speed:
(Current/Filed)
0kts
Departed: 24-Apr-20 11:51 AM
Arrived: 24-Apr-20 12:36 PM
Distance/Time
Traveled:
66nm/0:45
Distance/Time
To Go:
Arrived

Flight Plot

Page will automatically refresh every two minutes.


Map Options




Map Legend


Flown Route
Filed Route
Departure Airport
Arrival Airport
Navaid (VOR, NDB)
Fix

Horizontal Profiles

Position Reports

Time Latitude Longitude Heading Altitude Ground
Speed
24-Apr-20 11:38 32.734789 -117.187810 198 17ft 0kts
24-Apr-20 11:39 32.734789 -117.187810 198 17ft 0kts
24-Apr-20 11:40 32.734789 -117.187810 198 17ft 0kts
24-Apr-20 11:41 32.734789 -117.187811 197 17ft 0kts
24-Apr-20 11:42 32.734789 -117.187810 198 17ft 0kts
24-Apr-20 11:43 32.734789 -117.187810 198 17ft 0kts
24-Apr-20 11:44 32.734789 -117.187810 198 17ft 0kts
24-Apr-20 11:45 32.734117 -117.187203 105 17ft 12kts
24-Apr-20 11:46 32.732749 -117.181550 107 16ft 24kts
24-Apr-20 11:47 32.731097 -117.175724 122 21ft 15kts
24-Apr-20 11:48 32.730864 -117.175428 138 21ft 0kts
24-Apr-20 11:49 32.730863 -117.175428 138 21ft 0kts
24-Apr-20 11:50 32.731941 -117.183325 281 130ft 78kts
24-Apr-20 11:51 32.744909 -117.204335 323 943ft 85kts
24-Apr-20 11:52 32.764897 -117.219505 335 1774ft 84kts
24-Apr-20 11:53 32.786736 -117.229852 339 2538ft 86kts
24-Apr-20 11:54 32.808203 -117.242486 325 3266ft 86kts
24-Apr-20 11:55 32.828621 -117.255994 334 4062ft 71kts
24-Apr-20 11:56 32.845609 -117.267527 323 4792ft 69kts
24-Apr-20 11:57 32.861449 -117.279786 319 5567ft 61kts
24-Apr-20 11:58 32.869329 -117.299949 295 6190ft 71kts
24-Apr-20 11:59 32.880045 -117.319727 310 6857ft 69kts
24-Apr-20 12:00 32.899911 -117.322118 1 7406ft 78kts
24-Apr-20 12:01 32.921793 -117.323658 348 7991ft 79kts
24-Apr-20 12:02 32.941915 -117.335095 328 8488ft 87kts
24-Apr-20 12:03 32.966770 -117.350472 332 8485ft 105kts
24-Apr-20 12:04 32.991469 -117.368912 327 8504ft 105kts
24-Apr-20 12:05 33.016504 -117.387227 329 8514ft 106kts
24-Apr-20 12:06 33.041782 -117.405842 326 8515ft 107kts
24-Apr-20 12:07 33.066946 -117.425117 328 8498ft 108kts
24-Apr-20 12:09 33.092558 -117.443670 328 8491ft 107kts
24-Apr-20 12:10 33.118176 -117.462407 329 8492ft 108kts
24-Apr-20 12:11 33.143985 -117.480252 328 8505ft 107kts
24-Apr-20 12:12 33.169552 -117.498863 328 8511ft 107kts
24-Apr-20 12:13 33.195181 -117.517580 329 8518ft 107kts
24-Apr-20 12:14 33.220836 -117.535965 328 8525ft 107kts
24-Apr-20 12:15 33.246289 -117.555034 330 8530ft 107kts
24-Apr-20 12:16 33.271811 -117.573722 329 8540ft 107kts
24-Apr-20 12:17 33.297469 -117.592257 328 8551ft 107kts
24-Apr-20 12:18 33.323066 -117.610847 331 8560ft 106kts
24-Apr-20 12:19 33.348034 -117.626446 335 7693ft 101kts
24-Apr-20 12:20 33.372986 -117.643009 326 6751ft 104kts
24-Apr-20 12:21 33.396233 -117.662523 329 5853ft 101kts
24-Apr-20 12:21 33.416846 -117.675659 331 5124ft 100kts
24-Apr-20 12:23 33.443998 -117.696846 322 4111ft 101kts
24-Apr-20 12:24 33.467560 -117.715792 325 3220ft 104kts
24-Apr-20 12:25 33.493164 -117.732787 327 2337ft 106kts
24-Apr-20 12:25 33.514147 -117.747543 322 1969ft 103kts
24-Apr-20 12:26 33.540537 -117.769039 316 2022ft 123kts
24-Apr-20 12:28 33.574699 -117.794218 330 2020ft 125kts
24-Apr-20 12:29 33.604090 -117.816641 324 1964ft 127kts
24-Apr-20 12:29 33.625193 -117.833473 324 1424ft 108kts
24-Apr-20 12:30 33.647416 -117.846359 332 1079ft 96kts
24-Apr-20 12:31 33.665510 -117.853818 19 1096ft 83kts
24-Apr-20 12:32 33.682378 -117.843846 29 919ft 91kts
24-Apr-20 12:33 33.692539 -117.855478 224 438ft 63kts
24-Apr-20 12:34 33.680003 -117.864241 206 67ft 50kts
24-Apr-20 12:35 33.676884 -117.865601 119 60ft 0kts
24-Apr-20 12:36 33.676884 -117.865601 119 60ft 0kts
24-Apr-20 12:37 33.674521 -117.866818 207 60ft 16kts
24-Apr-20 12:38 33.672857 -117.867568 221 60ft 12kts
24-Apr-20 12:39 33.672109 -117.867219 208 60ft 0kts
24-Apr-20 12:40 33.672109 -117.867219 209 60ft 0kts
24-Apr-20 12:41 33.672109 -117.867219 209 60ft 0kts
24-Apr-20 12:42 33.672109 -117.867219 209 60ft 0kts
24-Apr-20 12:43 33.672109 -117.867219 209 60ft 0kts

Navigation Log

Ident Type
Flight plan parsing failed, navigation log unavailable